createdAt,value
2019-05-12T00:00:13.546Z,1014.77
2019-05-12T00:01:25.467Z,1014.77
2019-05-12T00:02:36.320Z,1014.82
2019-05-12T00:03:48.824Z,1014.78
2019-05-12T00:05:00.724Z,1014.8
2019-05-12T00:06:11.728Z,1014.83
2019-05-12T00:07:22.724Z,1014.79
2019-05-12T00:08:33.891Z,1014.83
2019-05-12T00:09:47.904Z,1014.86
2019-05-12T00:10:58.670Z,1014.85
2019-05-12T00:12:09.560Z,1014.9
2019-05-12T00:13:21.350Z,1014.94
2019-05-12T00:14:32.959Z,1014.91
2019-05-12T00:15:43.153Z,1014.95
2019-05-12T00:16:55.233Z,1014.94
2019-05-12T00:18:05.753Z,1014.92
2019-05-12T00:19:18.604Z,1014.94
2019-05-12T00:20:29.050Z,1014.96
2019-05-12T00:21:41.507Z,1014.93
2019-05-12T00:22:53.356Z,1014.99
2019-05-12T00:24:23.689Z,1014.96
2019-05-12T00:25:35.662Z,1014.98
2019-05-12T00:26:48.453Z,1015.06
2019-05-12T00:27:58.833Z,1015.03
2019-05-12T00:29:10.770Z,1015.01
2019-05-12T00:30:21.441Z,1015.02
2019-05-12T00:31:32.936Z,1014.99
2019-05-12T00:32:43.548Z,1015.02
2019-05-12T00:33:55.459Z,1015.01
2019-05-12T00:35:08.230Z,1015.01
2019-05-12T00:36:18.749Z,1015
2019-05-12T00:37:29.819Z,1015.03
2019-05-12T00:38:40.894Z,1015.03
2019-05-12T00:39:51.150Z,1015.03
2019-05-12T00:41:03.438Z,1015.03
2019-05-12T00:42:14.067Z,1015.07
2019-05-12T00:43:27.908Z,1015.08
2019-05-12T00:44:39.090Z,1015.09
2019-05-12T00:45:50.794Z,1015.07
2019-05-12T00:47:01.632Z,1015.12
2019-05-12T00:48:13.432Z,1015.08
2019-05-12T00:49:25.346Z,1015.12
2019-05-12T00:50:38.611Z,1015.15
2019-05-12T00:51:49.190Z,1015.13
2019-05-12T00:52:59.247Z,1015.11
2019-05-12T00:54:11.663Z,1015.11
2019-05-12T00:55:23.132Z,1015.12
2019-05-12T00:56:34.232Z,1015.12
2019-05-12T00:57:48.759Z,1015.19
2019-05-12T00:59:00.904Z,1015.17
2019-05-12T01:00:11.387Z,1015.16
2019-05-12T01:01:23.169Z,1015.22
2019-05-12T01:02:33.863Z,1015.23
2019-05-12T01:03:45.704Z,1015.25
2019-05-12T01:04:58.385Z,1015.27
2019-05-12T01:06:09.094Z,1015.25
2019-05-12T01:07:20.707Z,1015.3
2019-05-12T01:08:32.964Z,1015.24
2019-05-12T01:09:43.642Z,1015.32
2019-05-12T01:10:54.376Z,1015.32
2019-05-12T01:12:07.419Z,1015.32
2019-05-12T01:13:18.907Z,1015.38
2019-05-12T01:14:30.854Z,1015.38
2019-05-12T01:15:41.261Z,1015.38
2019-05-12T01:16:53.319Z,1015.38
2019-05-12T01:18:05.400Z,1015.4
2019-05-12T01:19:18.760Z,1015.36
2019-05-12T01:20:29.408Z,1015.45
2019-05-12T01:21:41.660Z,1015.4
2019-05-12T01:22:53.428Z,1015.45
2019-05-12T01:24:05.456Z,1015.41
2019-05-12T01:25:19.097Z,1015.4
2019-05-12T01:26:31.669Z,1015.5
2019-05-12T01:27:43.686Z,1015.56
2019-05-12T01:28:57.894Z,1015.55
2019-05-12T01:30:09.089Z,1015.53
2019-05-12T01:31:20.977Z,1015.54
2019-05-12T01:32:31.457Z,1015.59
2019-05-12T01:33:43.391Z,1015.59
2019-05-12T01:34:53.849Z,1015.59
2019-05-12T01:36:07.792Z,1015.64
2019-05-12T01:37:18.618Z,1015.63
2019-05-12T01:38:30.542Z,1015.71
2019-05-12T01:39:43.141Z,1015.72
2019-05-12T01:40:54.381Z,1015.68
2019-05-12T01:42:05.827Z,1015.73
2019-05-12T01:43:20.975Z,1015.79
2019-05-12T01:44:32.762Z,1015.78
2019-05-12T01:45:43.459Z,1015.81
2019-05-12T01:46:57.728Z,1015.84
2019-05-12T01:48:09.360Z,1015.85
2019-05-12T01:49:21.071Z,1015.93
2019-05-12T01:50:31.611Z,1015.91
2019-05-12T01:51:43.897Z,1015.94
2019-05-12T01:52:55.047Z,1015.94
2019-05-12T01:54:14.534Z,1015.94
2019-05-12T01:55:28.437Z,1015.97
2019-05-12T01:56:39.425Z,1016
2019-05-12T01:57:51.227Z,1016.02
2019-05-12T01:59:02.769Z,1016.05
2019-05-12T02:00:13.445Z,1016.09
2019-05-12T02:01:28.566Z,1016.09
2019-05-12T02:02:39.467Z,1016.06
2019-05-12T02:03:50.953Z,1016.13
2019-05-12T02:05:00.963Z,1016.11
2019-05-12T02:06:13.584Z,1016.17
2019-05-12T02:07:23.713Z,1016.13
2019-05-12T02:08:35.626Z,1016.15
2019-05-12T02:09:48.328Z,1016.19
2019-05-12T02:10:58.687Z,1016.18
2019-05-12T02:12:10.737Z,1016.14
2019-05-12T02:13:21.149Z,1016.23
2019-05-12T02:14:32.950Z,1016.21
2019-05-12T02:15:43.509Z,1016.26
2019-05-12T02:16:53.894Z,1016.27
2019-05-12T02:18:05.310Z,1016.29
2019-05-12T02:19:18.290Z,1016.29
2019-05-12T02:20:29.064Z,1016.28
2019-05-12T02:21:41.023Z,1016.27
2019-05-12T02:22:51.624Z,1016.35
2019-05-12T02:24:03.505Z,1016.27
2019-05-12T02:25:32.908Z,1016.27
2019-05-12T02:26:45.247Z,1016.25
2019-05-12T02:27:58.645Z,1016.33
2019-05-12T02:29:09.913Z,1016.29
2019-05-12T02:30:20.938Z,1016.32
2019-05-12T02:31:33.110Z,1016.34
2019-05-12T02:32:52.289Z,1016.34
2019-05-12T02:34:10.275Z,1016.37
2019-05-12T02:35:25.707Z,1016.43
2019-05-12T02:36:38.403Z,1016.4
2019-05-12T02:37:50.202Z,1016.44
2019-05-12T02:39:05.492Z,1016.42
2019-05-12T02:40:17.751Z,1016.43
2019-05-12T02:41:30.368Z,1016.4
2019-05-12T02:42:46.241Z,1016.37
2019-05-12T02:43:59.993Z,1016.4
2019-05-12T02:45:15.755Z,1016.46
2019-05-12T02:46:28.491Z,1016.48
2019-05-12T02:47:45.779Z,1016.49
2019-05-12T02:48:57.226Z,1016.5
2019-05-12T02:50:09.513Z,1016.5
2019-05-12T02:51:25.183Z,1016.53
2019-05-12T02:52:38.108Z,1016.53
2019-05-12T02:53:49.604Z,1016.57
2019-05-12T02:55:06.183Z,1016.58
2019-05-12T02:56:17.945Z,1016.55
2019-05-12T02:57:34.087Z,1016.56
2019-05-12T02:58:48.001Z,1016.59
2019-05-12T02:59:59.624Z,1016.58
2019-05-12T03:01:16.333Z,1016.55
2019-05-12T03:02:29.426Z,1016.58
2019-05-12T03:03:44.798Z,1016.64
2019-05-12T03:04:57.759Z,1016.59
2019-05-12T03:06:10.778Z,1016.62
2019-05-12T03:07:25.722Z,1016.7
2019-05-12T03:08:37.561Z,1016.69
2019-05-12T03:09:50.188Z,1016.71
2019-05-12T03:11:06.164Z,1016.72
2019-05-12T03:12:17.765Z,1016.71
2019-05-12T03:13:30.878Z,1016.7
2019-05-12T03:14:45.257Z,1016.73
2019-05-12T03:15:57.360Z,1016.74
2019-05-12T03:17:10.253Z,1016.81
2019-05-12T03:18:25.672Z,1016.8
2019-05-12T03:19:37.551Z,1016.78
2019-05-12T03:20:50.154Z,1016.78
2019-05-12T03:22:05.656Z,1016.83
2019-05-12T03:23:19.035Z,1016.9
2019-05-12T03:24:35.690Z,1016.9
2019-05-12T03:26:06.666Z,1016.94
2019-05-12T03:27:18.338Z,1016.9
2019-05-12T03:28:30.997Z,1016.94
2019-05-12T03:29:45.168Z,1016.95
2019-05-12T03:30:58.547Z,1016.93
2019-05-12T03:32:27.296Z,1016.96
2019-05-12T03:33:52.361Z,1016.94
2019-05-12T03:35:31.850Z,1016.98
2019-05-12T03:37:09.519Z,1017
2019-05-12T03:38:36.262Z,1017.01
2019-05-12T03:39:47.715Z,1017.02
2019-05-12T03:40:59.829Z,1017.08
2019-05-12T03:42:15.290Z,1017.08
2019-05-12T03:43:28.066Z,1017.11
2019-05-12T03:44:40.146Z,1017.09
2019-05-12T03:45:51.739Z,1017.07
2019-05-12T03:47:05.796Z,1017.12
2019-05-12T03:48:17.416Z,1017.12
2019-05-12T03:49:30.383Z,1017.19
2019-05-12T03:50:46.222Z,1017.18
2019-05-12T03:51:59.306Z,1017.18
2019-05-12T03:53:16.024Z,1017.23
2019-05-12T03:54:29.786Z,1017.25
2019-05-12T03:55:46.775Z,1017.3
2019-05-12T03:57:00.084Z,1017.25
2019-05-12T03:58:15.576Z,1017.3
2019-05-12T03:59:28.322Z,1017.28
2019-05-12T04:00:40.151Z,1017.33
2019-05-12T04:01:55.808Z,1017.31
2019-05-12T04:03:07.729Z,1017.37
2019-05-12T04:04:20.193Z,1017.33
2019-05-12T04:05:35.616Z,1017.39
2019-05-12T04:06:48.164Z,1017.47
2019-05-12T04:07:59.626Z,1017.49
2019-05-12T04:09:16.162Z,1017.52
2019-05-12T04:10:27.528Z,1017.54
2019-05-12T04:11:40.502Z,1017.57
2019-05-12T04:12:54.642Z,1017.63
2019-05-12T04:14:07.554Z,1017.63
2019-05-12T04:15:20.121Z,1017.65
2019-05-12T04:16:36.447Z,1017.7
2019-05-12T04:17:48.189Z,1017.72
2019-05-12T04:18:59.410Z,1017.78
2019-05-12T04:20:15.545Z,1017.8
2019-05-12T04:21:28.396Z,1017.78
2019-05-12T04:22:40.467Z,1017.82
2019-05-12T04:23:55.190Z,1017.81
2019-05-12T04:25:08.040Z,1017.84
2019-05-12T04:26:19.489Z,1017.86
2019-05-12T04:27:36.730Z,1017.82
2019-05-12T04:28:49.741Z,1017.79
2019-05-12T04:30:05.816Z,1017.86
2019-05-12T04:31:17.216Z,1017.87
2019-05-12T04:32:30.043Z,1017.86
2019-05-12T04:33:45.489Z,1017.9
2019-05-12T04:34:57.373Z,1017.91
2019-05-12T04:36:09.570Z,1017.96
2019-05-12T04:37:25.301Z,1017.96
2019-05-12T04:38:37.933Z,1018
2019-05-12T04:39:50.353Z,1018.08
2019-05-12T04:41:06.227Z,1018.09
2019-05-12T04:42:26.165Z,1018.07
2019-05-12T04:43:37.937Z,1018.1
2019-05-12T04:44:50.147Z,1018.11
2019-05-12T04:46:05.244Z,1018.19
2019-05-12T04:47:17.432Z,1018.21
2019-05-12T04:48:30.499Z,1018.22
2019-05-12T04:49:45.941Z,1018.26
2019-05-12T04:50:57.535Z,1018.28
2019-05-12T04:52:10.154Z,1018.33
2019-05-12T04:53:25.586Z,1018.34
2019-05-12T04:54:38.132Z,1018.35
2019-05-12T04:56:05.889Z,1018.4
2019-05-12T04:57:30.087Z,1018.41
2019-05-12T04:58:45.432Z,1018.43
2019-05-12T04:59:57.532Z,1018.46
2019-05-12T05:01:10.402Z,1018.45
2019-05-12T05:02:25.902Z,1018.48
2019-05-12T05:03:39.240Z,1018.53
2019-05-12T05:04:55.017Z,1018.56
2019-05-12T05:06:07.969Z,1018.54
2019-05-12T05:07:20.226Z,1018.61
2019-05-12T05:08:34.537Z,1018.64
2019-05-12T05:09:47.172Z,1018.69
2019-05-12T05:11:00.026Z,1018.7
2019-05-12T05:12:13.892Z,1018.72
2019-05-12T05:13:26.732Z,1018.69
2019-05-12T05:14:44.746Z,1018.72
2019-05-12T05:15:57.694Z,1018.75
2019-05-12T05:17:10.328Z,1018.8
2019-05-12T05:18:24.971Z,1018.82
2019-05-12T05:19:37.250Z,1018.9
2019-05-12T05:20:49.056Z,1018.89
2019-05-12T05:21:59.207Z,1018.9
2019-05-12T05:23:09.588Z,1018.91
2019-05-12T05:24:23.504Z,1018.98
2019-05-12T05:25:34.457Z,1018.96
2019-05-12T05:26:46.388Z,1018.99
2019-05-12T05:27:56.849Z,1019.05
2019-05-12T05:29:09.010Z,1019.08
2019-05-12T05:30:21.076Z,1019.09
2019-05-12T05:31:34.372Z,1019.11
2019-05-12T05:32:44.768Z,1019.11
2019-05-12T05:33:56.192Z,1019.17
2019-05-12T05:35:07.924Z,1019.18
2019-05-12T05:36:19.857Z,1019.15
2019-05-12T05:37:30.670Z,1019.18
2019-05-12T05:38:50.904Z,1019.23
2019-05-12T05:40:09.551Z,1019.2
2019-05-12T05:41:31.332Z,1019.28
2019-05-12T05:42:54.380Z,1019.3
2019-05-12T05:44:21.374Z,1019.33
2019-05-12T05:45:39.682Z,1019.37
2019-05-12T05:47:04.236Z,1019.43
2019-05-12T05:48:20.383Z,1019.41
2019-05-12T05:49:35.727Z,1019.45
2019-05-12T05:50:46.307Z,1019.51
2019-05-12T05:52:00.518Z,1019.5
2019-05-12T05:53:15.323Z,1019.48
2019-05-12T05:54:35.780Z,1019.48
2019-05-12T05:55:50.237Z,1019.53
2019-05-12T05:57:06.985Z,1019.55
2019-05-12T05:58:28.229Z,1019.58
2019-05-12T05:59:50.734Z,1019.61
2019-05-12T06:01:03.610Z,1019.65
2019-05-12T06:02:23.024Z,1019.64
2019-05-12T06:03:48.934Z,1019.65
2019-05-12T06:05:09.428Z,1019.63
2019-05-12T06:06:33.952Z,1019.76
2019-05-12T06:07:58.608Z,1019.82
2019-05-12T06:09:19.020Z,1019.81
2019-05-12T06:10:35.921Z,1019.88
2019-05-12T06:11:48.526Z,1019.93
2019-05-12T06:13:08.504Z,1019.96
2019-05-12T06:14:30.916Z,1019.92
2019-05-12T06:15:49.272Z,1019.98
2019-05-12T06:17:01.222Z,1019.92
2019-05-12T06:18:13.544Z,1020
2019-05-12T06:19:26.196Z,1019.87
2019-05-12T06:20:38.233Z,1019.96
2019-05-12T06:21:48.739Z,1020.01
2019-05-12T06:23:00.958Z,1020.05
2019-05-12T06:24:15.114Z,1020.08
2019-05-12T06:25:40.934Z,1020.15
2019-05-12T06:27:00.839Z,1020.11
2019-05-12T06:28:31.002Z,1020.13
2019-05-12T06:29:52.292Z,1020.15
2019-05-12T06:31:18.837Z,1020.12
2019-05-12T06:32:41.084Z,1020.14
2019-05-12T06:33:59.393Z,1020.17
2019-05-12T06:35:30.816Z,1020.22
2019-05-12T06:36:47.913Z,1020.22
2019-05-12T06:38:13.529Z,1020.21
2019-05-12T06:39:24.168Z,1020.13
2019-05-12T06:40:40.663Z,1020.16
2019-05-12T06:41:57.044Z,1020.17
2019-05-12T06:43:29.035Z,1020.21
2019-05-12T06:44:48.835Z,1020.28
2019-05-12T06:46:06.641Z,1020.23
2019-05-12T06:47:28.804Z,1020.28
2019-05-12T06:48:48.262Z,1020.31
2019-05-12T06:50:14.509Z,1020.27
2019-05-12T06:51:29.184Z,1020.28
2019-05-12T06:52:44.490Z,1020.31
2019-05-12T06:54:00.804Z,1020.36
2019-05-12T06:55:20.385Z,1020.36
2019-05-12T06:56:40.087Z,1020.35
2019-05-12T06:58:27.416Z,1020.36
2019-05-12T06:59:42.638Z,1020.38
2019-05-12T07:01:10.338Z,1020.33
2019-05-12T07:02:30.163Z,1020.31
2019-05-12T07:04:00.468Z,1020.3
2019-05-12T07:05:16.577Z,1020.35
2019-05-12T07:06:36.945Z,1020.33
2019-05-12T07:07:56.843Z,1020.32
2019-05-12T07:09:11.983Z,1020.34
2019-05-12T07:11:01.605Z,1020.36
2019-05-12T07:12:14.886Z,1020.38
2019-05-12T07:14:07.306Z,1020.37
2019-05-12T07:15:35.450Z,1020.27
2019-05-12T07:16:53.210Z,1020.39
2019-05-12T07:18:17.633Z,1020.42
2019-05-12T07:19:44.263Z,1020.46
2019-05-12T07:21:04.442Z,1020.52
2019-05-12T07:22:31.197Z,1020.48
2019-05-12T07:23:55.332Z,1020.49
2019-05-12T07:25:14.770Z,1020.54
2019-05-12T07:26:37.157Z,1020.57
2019-05-12T07:28:06.841Z,1020.57
2019-05-12T07:29:19.235Z,1020.66
2019-05-12T07:30:32.534Z,1020.64
2019-05-12T07:31:46.888Z,1020.7
2019-05-12T07:33:00.881Z,1020.69
2019-05-12T07:34:14.959Z,1020.7
2019-05-12T07:35:26.941Z,1020.71
2019-05-12T07:36:39.188Z,1020.72
2019-05-12T07:37:49.569Z,1020.73
2019-05-12T07:39:03.835Z,1020.73
2019-05-12T07:40:23.797Z,1020.73
2019-05-12T07:41:50.696Z,1020.83
2019-05-12T07:43:04.143Z,1020.88
2019-05-12T07:44:31.964Z,1020.86
2019-05-12T07:45:53.761Z,1020.84
2019-05-12T07:47:19.115Z,1020.83
2019-05-12T07:48:40.148Z,1020.81
2019-05-12T07:49:59.396Z,1020.8
2019-05-12T07:51:24.013Z,1020.8
2019-05-12T07:52:45.204Z,1020.89
2019-05-12T07:53:58.882Z,1020.85
2019-05-12T07:55:11.557Z,1020.9
2019-05-12T07:56:25.434Z,1020.85
2019-05-12T07:57:54.797Z,1020.84
2019-05-12T07:59:34.420Z,1020.83
2019-05-12T08:00:53.760Z,1020.81
2019-05-12T08:02:17.383Z,1020.8
2019-05-12T08:03:40.720Z,1020.84
2019-05-12T08:04:59.927Z,1020.78
2019-05-12T08:06:24.535Z,1020.89
2019-05-12T08:07:50.448Z,1020.85
2019-05-12T08:09:13.550Z,1020.91
2019-05-12T08:10:39.308Z,1020.92
2019-05-12T08:11:56.579Z,1020.94
2019-05-12T08:13:20.115Z,1020.87
2019-05-12T08:14:38.486Z,1020.94
2019-05-12T08:15:52.890Z,1020.93
2019-05-12T08:17:10.597Z,1020.94
2019-05-12T08:18:30.398Z,1020.97
2019-05-12T08:19:49.773Z,1020.99
2019-05-12T08:21:03.505Z,1021.02
2019-05-12T08:22:18.726Z,1020.96
2019-05-12T08:23:38.123Z,1020.98
2019-05-12T08:24:49.779Z,1021.01
2019-05-12T08:26:03.272Z,1021.04
2019-05-12T08:27:26.872Z,1020.94
2019-05-12T08:28:48.241Z,1020.96
2019-05-12T08:30:00.862Z,1020.99
2019-05-12T08:31:14.373Z,1020.92
2019-05-12T08:32:44.605Z,1020.96
2019-05-12T08:34:10.284Z,1020.96
2019-05-12T08:35:26.768Z,1020.97
2019-05-12T08:36:53.029Z,1021.03
2019-05-12T08:38:07.015Z,1021
2019-05-12T08:39:22.777Z,1021.02
2019-05-12T08:40:34.315Z,1021.08
2019-05-12T08:41:57.055Z,1021.13
2019-05-12T08:43:10.634Z,1021.19
2019-05-12T08:44:33.377Z,1021.15
2019-05-12T08:45:48.474Z,1021.16
2019-05-12T08:47:16.063Z,1021.17
2019-05-12T08:48:29.639Z,1021.22
2019-05-12T08:49:50.855Z,1021.2
2019-05-12T08:51:13.812Z,1021.24
2019-05-12T08:52:30.442Z,1021.28
2019-05-12T08:53:53.787Z,1021.26
2019-05-12T08:55:21.913Z,1021.36
2019-05-12T08:56:41.138Z,1021.36
2019-05-12T08:58:04.433Z,1021.35
2019-05-12T08:59:47.338Z,1021.31
2019-05-12T09:01:20.182Z,1021.33
2019-05-12T09:02:39.810Z,1021.33
2019-05-12T09:04:00.213Z,1021.32
2019-05-12T09:05:33.491Z,1021.37
2019-05-12T09:06:50.084Z,1021.39
2019-05-12T09:08:07.299Z,1021.35
2019-05-12T09:09:19.114Z,1021.38
2019-05-12T09:10:30.893Z,1021.36
2019-05-12T09:11:43.870Z,1021.44
2019-05-12T09:12:54.762Z,1021.45
2019-05-12T09:14:07.059Z,1021.42
2019-05-12T09:15:19.758Z,1021.47
2019-05-12T09:16:33.051Z,1021.51
2019-05-12T09:17:52.365Z,1021.54
2019-05-12T09:19:09.990Z,1021.52
2019-05-12T09:20:33.735Z,1021.55
2019-05-12T09:21:58.403Z,1021.51
2019-05-12T09:23:27.025Z,1021.58
2019-05-12T09:24:58.312Z,1021.51
2019-05-12T09:26:18.430Z,1021.54
2019-05-12T09:27:39.394Z,1021.53
2019-05-12T09:28:57.169Z,1021.6
2019-05-12T09:30:10.404Z,1021.58
2019-05-12T09:31:25.216Z,1021.55
2019-05-12T09:32:43.772Z,1021.6
2019-05-12T09:34:03.388Z,1021.58
2019-05-12T09:35:28.512Z,1021.55
2019-05-12T09:36:51.799Z,1021.48
2019-05-12T09:38:11.262Z,1021.59
2019-05-12T09:39:42.262Z,1021.58
2019-05-12T09:41:03.162Z,1021.64
2019-05-12T09:42:19.150Z,1021.6
2019-05-12T09:43:40.123Z,1021.57
2019-05-12T09:45:05.886Z,1021.6
2019-05-12T09:46:18.847Z,1021.6
2019-05-12T09:47:38.747Z,1021.58
2019-05-12T09:48:52.759Z,1021.56
2019-05-12T09:50:09.528Z,1021.51
2019-05-12T09:51:32.749Z,1021.6
2019-05-12T09:52:55.553Z,1021.64
2019-05-12T09:54:17.135Z,1021.57
2019-05-12T09:55:44.951Z,1021.6
2019-05-12T09:56:59.706Z,1021.67
2019-05-12T09:58:22.900Z,1021.68
2019-05-12T09:59:36.659Z,1021.66
2019-05-12T10:01:04.858Z,1021.69
2019-05-12T10:02:20.559Z,1021.65
2019-05-12T10:03:38.347Z,1021.68
2019-05-12T10:04:56.261Z,1021.73
2019-05-12T10:06:11.246Z,1021.76
2019-05-12T10:07:27.500Z,1021.68
2019-05-12T10:08:38.977Z,1021.77
2019-05-12T10:09:54.933Z,1021.74
2019-05-12T10:11:10.160Z,1021.69
2019-05-12T10:12:29.446Z,1021.73
2019-05-12T10:14:00.151Z,1021.69
2019-05-12T10:15:18.532Z,1021.67
2019-05-12T10:16:39.312Z,1021.69
2019-05-12T10:17:59.904Z,1021.67
2019-05-12T10:19:19.450Z,1021.62
2019-05-12T10:20:35.062Z,1021.49
2019-05-12T10:21:55.028Z,1021.64
2019-05-12T10:23:10.080Z,1021.71
2019-05-12T10:24:40.757Z,1021.7
2019-05-12T10:26:10.246Z,1021.61
2019-05-12T10:27:27.025Z,1021.74
2019-05-12T10:28:51.699Z,1021.69
2019-05-12T10:30:24.993Z,1021.67
2019-05-12T10:31:39.272Z,1021.68
2019-05-12T10:32:54.166Z,1021.64
2019-05-12T10:34:06.516Z,1021.79
2019-05-12T10:35:21.249Z,1021.69
2019-05-12T10:36:39.010Z,1021.72
2019-05-12T10:38:00.069Z,1021.63
2019-05-12T10:39:18.839Z,1021.67
2019-05-12T10:40:29.737Z,1021.75
2019-05-12T10:41:43.286Z,1021.83
2019-05-12T10:42:55.165Z,1021.78
2019-05-12T10:44:07.630Z,1021.77
2019-05-12T10:45:20.572Z,1021.69
2019-05-12T10:46:31.230Z,1021.74
2019-05-12T10:47:43.077Z,1021.71
2019-05-12T10:48:53.793Z,1021.76
2019-05-12T10:50:04.483Z,1021.81
2019-05-12T10:51:14.687Z,1021.79
2019-05-12T10:52:29.317Z,1021.74
2019-05-12T10:53:48.273Z,1021.75
2019-05-12T10:55:18.611Z,1021.74
2019-05-12T10:56:28.964Z,1021.89
2019-05-12T10:57:40.182Z,1021.79
2019-05-12T10:59:07.604Z,1021.87
2019-05-12T11:00:34.215Z,1021.85
2019-05-12T11:01:48.787Z,1021.84
2019-05-12T11:03:01.406Z,1021.83
2019-05-12T11:04:22.789Z,1021.89
2019-05-12T11:05:54.546Z,1021.92
2019-05-12T11:07:15.308Z,1021.9
2019-05-12T11:08:33.165Z,1021.89
2019-05-12T11:09:54.674Z,1021.98
2019-05-12T11:11:24.102Z,1021.98
2019-05-12T11:12:47.584Z,1021.91
2019-05-12T11:14:08.392Z,1021.98
2019-05-12T11:15:27.092Z,1021.93
2019-05-12T11:16:47.999Z,1021.95
2019-05-12T11:18:02.707Z,1022
2019-05-12T11:19:13.692Z,1022.12
2019-05-12T11:20:25.034Z,1022.13
2019-05-12T11:21:37.356Z,1022
2019-05-12T11:22:49.322Z,1022.04
2019-05-12T11:24:03.957Z,1022.04
2019-05-12T11:25:14.563Z,1022.06
2019-05-12T11:26:25.270Z,1022.09
2019-05-12T11:27:34.734Z,1022.15
2019-05-12T11:28:46.650Z,1022.11
2019-05-12T11:29:58.515Z,1022.06
2019-05-12T11:31:09.565Z,1022.1
2019-05-12T11:32:22.810Z,1022.14
2019-05-12T11:33:43.554Z,1022.13
2019-05-12T11:34:54.647Z,1022.15
2019-05-12T11:36:06.862Z,1022.18
2019-05-12T11:37:18.831Z,1022.19
2019-05-12T11:38:34.280Z,1022.2
2019-05-12T11:39:47.487Z,1022.15
2019-05-12T11:40:58.585Z,1022.26
2019-05-12T11:42:19.338Z,1022.18
2019-05-12T11:43:34.104Z,1022.19
2019-05-12T11:44:44.332Z,1022.17
2019-05-12T11:45:54.086Z,1022.25
2019-05-12T11:47:03.838Z,1022.3
2019-05-12T11:48:26.565Z,1022.31
2019-05-12T11:49:40.928Z,1022.21
2019-05-12T11:50:54.580Z,1022.24
2019-05-12T11:52:11.815Z,1022.26
2019-05-12T11:53:30.607Z,1022.29
2019-05-12T11:54:46.999Z,1022.31
2019-05-12T11:56:02.187Z,1022.33
2019-05-12T11:57:19.998Z,1022.32
2019-05-12T11:58:41.111Z,1022.36
2019-05-12T12:00:02.091Z,1022.32
2019-05-12T12:01:14.271Z,1022.28
2019-05-12T12:02:26.089Z,1022.25
2019-05-12T12:03:39.484Z,1022.22
2019-05-12T12:04:51.121Z,1022.29
2019-05-12T12:06:02.036Z,1022.35
2019-05-12T12:07:13.710Z,1022.41
2019-05-12T12:08:26.153Z,1022.4
2019-05-12T12:09:49.290Z,1022.43
2019-05-12T12:11:10.412Z,1022.38
2019-05-12T12:12:34.784Z,1022.38
2019-05-12T12:14:00.168Z,1022.38
2019-05-12T12:15:20.224Z,1022.41
2019-05-12T12:16:41.790Z,1022.46
2019-05-12T12:18:03.726Z,1022.46
2019-05-12T12:19:25.938Z,1022.35
2019-05-12T12:21:02.582Z,1022.48
2019-05-12T12:22:20.208Z,1022.47
2019-05-12T12:23:40.816Z,1022.46
2019-05-12T12:25:02.825Z,1022.54
2019-05-12T12:26:25.984Z,1022.51
2019-05-12T12:27:45.131Z,1022.51
2019-05-12T12:28:56.632Z,1022.48
2019-05-12T12:30:16.651Z,1022.51
2019-05-12T12:31:35.407Z,1022.58
2019-05-12T12:32:50.227Z,1022.57
2019-05-12T12:34:09.465Z,1022.57
2019-05-12T12:35:36.071Z,1022.57
2019-05-12T12:36:51.151Z,1022.5
2019-05-12T12:38:04.013Z,1022.55
2019-05-12T12:39:16.903Z,1022.52
2019-05-12T12:40:29.006Z,1022.51
2019-05-12T12:41:43.499Z,1022.53
2019-05-12T12:43:09.689Z,1022.55
2019-05-12T12:44:20.937Z,1022.52
2019-05-12T12:45:36.456Z,1022.55
2019-05-12T12:46:56.548Z,1022.54
2019-05-12T12:48:09.335Z,1022.52
2019-05-12T12:49:33.652Z,1022.54
2019-05-12T12:50:53.402Z,1022.58
2019-05-12T12:52:04.608Z,1022.7
2019-05-12T12:53:16.832Z,1022.68
2019-05-12T12:54:30.547Z,1022.66
2019-05-12T12:55:43.365Z,1022.59
2019-05-12T12:57:00.004Z,1022.78
2019-05-12T12:58:20.973Z,1022.72
2019-05-12T12:59:42.740Z,1022.78
2019-05-12T13:01:00.586Z,1022.77
2019-05-12T13:02:29.260Z,1022.76
2019-05-12T13:03:50.720Z,1022.83
2019-05-12T13:05:07.974Z,1022.85
2019-05-12T13:06:19.265Z,1022.8
2019-05-12T13:07:33.295Z,1022.76
2019-05-12T13:08:44.475Z,1022.84
2019-05-12T13:10:04.430Z,1022.92
2019-05-12T13:11:30.062Z,1022.93
2019-05-12T13:12:44.759Z,1022.98
2019-05-12T13:14:07.200Z,1022.92
2019-05-12T13:15:20.963Z,1022.91
2019-05-12T13:16:31.071Z,1022.85
2019-05-12T13:17:44.831Z,1022.91
2019-05-12T13:18:54.608Z,1022.94
2019-05-12T13:20:20.063Z,1022.9
2019-05-12T13:21:33.543Z,1022.95
2019-05-12T13:22:53.737Z,1022.94
2019-05-12T13:24:04.717Z,1022.91
2019-05-12T13:25:14.455Z,1022.95
2019-05-12T13:26:24.625Z,1022.96
2019-05-12T13:27:36.792Z,1022.9
2019-05-12T13:28:53.111Z,1022.77
2019-05-12T13:30:05.334Z,1023.05
2019-05-12T13:31:46.334Z,1023.02
2019-05-12T13:32:59.052Z,1023.04
2019-05-12T13:34:19.667Z,1022.98
2019-05-12T13:35:39.835Z,1022.95
2019-05-12T13:36:58.931Z,1022.95
2019-05-12T13:38:23.939Z,1023.09
2019-05-12T13:39:55.153Z,1023.07
2019-05-12T13:41:09.492Z,1023.09
2019-05-12T13:42:30.305Z,1023.02
2019-05-12T13:43:44.275Z,1023.08
2019-05-12T13:45:06.847Z,1023
2019-05-12T13:46:23.707Z,1023.04
2019-05-12T13:47:39.623Z,1023.07
2019-05-12T13:48:56.032Z,1023.11
2019-05-12T13:50:13.158Z,1023.1
2019-05-12T13:51:33.539Z,1023.11
2019-05-12T13:52:51.038Z,1023.12
2019-05-12T13:54:14.574Z,1023.15
2019-05-12T13:55:39.220Z,1023.1
2019-05-12T13:56:57.209Z,1023.13
2019-05-12T13:58:18.928Z,1023.12
2019-05-12T13:59:44.141Z,1023.18
2019-05-12T14:01:19.214Z,1023.16
2019-05-12T14:02:48.760Z,1023.18
2019-05-12T14:04:16.706Z,1023.22
2019-05-12T14:05:34.210Z,1023.32
2019-05-12T14:06:58.161Z,1023.22
2019-05-12T14:08:18.391Z,1023.3
2019-05-12T14:09:29.081Z,1023.35
2019-05-12T14:10:44.356Z,1023.36
2019-05-12T14:12:07.279Z,1023.44
2019-05-12T14:13:18.844Z,1023.43
2019-05-12T14:14:29.559Z,1023.41
2019-05-12T14:15:44.383Z,1023.42
2019-05-12T14:16:59.184Z,1023.29
2019-05-12T14:18:16.270Z,1023.36
2019-05-12T14:19:30.203Z,1023.44
2019-05-12T14:20:45.147Z,1023.39
2019-05-12T14:22:04.769Z,1023.39
2019-05-12T14:23:28.933Z,1023.47
2019-05-12T14:24:41.805Z,1023.38
2019-05-12T14:25:56.936Z,1023.41
2019-05-12T14:27:14.202Z,1023.41
2019-05-12T14:28:33.807Z,1023.49
2019-05-12T14:29:53.898Z,1023.54
2019-05-12T14:31:27.392Z,1023.53
2019-05-12T14:33:05.900Z,1023.62
2019-05-12T14:34:20.703Z,1023.54
2019-05-12T14:35:40.079Z,1023.57
2019-05-12T14:37:04.772Z,1023.54
2019-05-12T14:38:25.264Z,1023.55
2019-05-12T14:39:40.056Z,1023.62
2019-05-12T14:41:01.173Z,1023.55
2019-05-12T14:42:19.789Z,1023.65
2019-05-12T14:43:47.848Z,1023.63
2019-05-12T14:45:08.482Z,1023.53
2019-05-12T14:46:28.922Z,1023.64
2019-05-12T14:47:59.877Z,1023.66
2019-05-12T14:49:20.161Z,1023.6
2019-05-12T14:50:38.269Z,1023.59
2019-05-12T14:51:49.176Z,1023.61
2019-05-12T14:53:03.750Z,1023.65
2019-05-12T14:54:14.973Z,1023.71
2019-05-12T14:55:26.826Z,1023.66
2019-05-12T14:56:44.048Z,1023.64
2019-05-12T14:58:04.106Z,1023.72
2019-05-12T14:59:30.052Z,1023.73
2019-05-12T15:00:50.807Z,1023.76
2019-05-12T15:02:06.804Z,1023.76
2019-05-12T15:03:28.224Z,1023.79
2019-05-12T15:04:43.541Z,1023.84
2019-05-12T15:05:54.751Z,1023.91
2019-05-12T15:07:10.102Z,1023.82
2019-05-12T15:08:21.411Z,1023.85
2019-05-12T15:09:46.520Z,1023.89
2019-05-12T15:11:14.852Z,1023.87
2019-05-12T15:12:26.633Z,1023.85
2019-05-12T15:13:38.559Z,1023.83
2019-05-12T15:14:48.982Z,1023.91
2019-05-12T15:16:00.131Z,1023.86
2019-05-12T15:17:13.566Z,1023.87
2019-05-12T15:18:34.190Z,1023.85
2019-05-12T15:19:54.690Z,1023.89
2019-05-12T15:21:14.466Z,1023.95
2019-05-12T15:22:36.910Z,1023.85
2019-05-12T15:24:00.277Z,1023.84
2019-05-12T15:25:20.459Z,1023.91
2019-05-12T15:26:38.439Z,1023.89
2019-05-12T15:27:59.837Z,1023.89
2019-05-12T15:29:14.574Z,1023.9
2019-05-12T15:30:31.161Z,1024.01
2019-05-12T15:31:52.650Z,1024.01